Time;durP1;ratioP1;P1;durP2;ratioP2;P2;SDS_P1;SDS_P2;PMS_P1;PMS_P2;Temp;Humidity;BMP_temperature;BMP_pressure;BME280_temperature;BME280_humidity;BME280_pressure;Samples;Min_cycle;Max_cycle;Signal;HPM_P1;HPM_P2
2022/04/22 00:00:48;;;;;;;14.65;5.65;;;;;;;13.60;35.28;98038.59;4455026;32;20097;-88
2022/04/22 00:03:13;;;;;;;13.95;6.00;;;;;;;13.60;35.16;98037.72;4428039;32;20510;-88
2022/04/22 00:05:39;;;;;;;13.30;6.03;;;;;;;13.64;35.10;98039.22;4440956;32;20169;-88
2022/04/22 00:08:05;;;;;;;15.32;6.35;;;;;;;13.60;35.15;98041.25;4454931;32;20367;-88
2022/04/22 00:10:30;;;;;;;13.20;5.97;;;;;;;13.60;34.99;98035.09;4440789;32;20351;-88
2022/04/22 00:12:56;;;;;;;14.25;6.75;;;;;;;13.62;34.96;98023.44;4454867;32;20133;-88
2022/04/22 00:15:21;;;;;;;14.43;6.65;;;;;;;13.63;34.85;98026.91;4454781;32;20124;-88
2022/04/22 00:17:47;;;;;;;13.65;6.57;;;;;;;13.64;34.88;98024.16;4454609;32;20077;-88
2022/04/22 00:20:13;;;;;;;14.60;6.95;;;;;;;13.67;35.08;98015.12;4454622;32;20381;-88
2022/04/22 00:22:42;;;;;;;14.73;6.90;;;;;;;13.71;35.31;98014.78;4455124;32;20376;-88
2022/04/22 00:25:13;;;;;;;18.05;7.10;;;;;;;13.73;35.57;98011.97;4440908;32;20089;-90
2022/04/22 00:27:38;;;;;;;19.45;8.45;;;;;;;13.76;35.70;98006.44;4428019;32;20110;-89
2022/04/22 00:30:06;;;;;;;15.60;6.72;;;;;;;13.79;35.79;98011.50;4454559;32;20112;-90
2022/04/22 00:32:33;;;;;;;13.68;6.53;;;;;;;13.79;36.14;98008.88;4440542;32;20139;-90
2022/04/22 00:34:59;;;;;;;17.58;7.75;;;;;;;13.80;36.46;98005.25;4454433;32;20109;-89
2022/04/22 00:37:25;;;;;;;15.55;7.07;;;;;;;13.79;36.36;98000.94;4454487;32;20102;-90
2022/04/22 00:39:50;;;;;;;15.43;7.32;;;;;;;13.82;36.48;98007.78;4440399;32;20097;-90
2022/04/22 00:42:16;;;;;;;15.45;7.57;;;;;;;13.83;36.58;97996.19;4440408;32;20123;-89
2022/04/22 00:44:41;;;;;;;15.73;8.00;;;;;;;13.86;36.78;97990.66;4454293;32;20100;-90
2022/04/22 00:47:07;;;;;;;16.20;7.62;;;;;;;13.86;36.64;97996.78;4454179;32;20451;-90
2022/04/22 00:49:32;;;;;;;17.67;7.65;;;;;;;13.84;36.73;97984.66;4440208;32;20519;-89
2022/04/22 00:51:58;;;;;;;15.45;8.07;;;;;;;13.86;36.60;97982.72;4455480;32;20097;-88
2022/04/22 00:54:23;;;;;;;16.67;8.25;;;;;;;13.86;36.76;97988.03;4442551;32;20084;-88
2022/04/22 00:56:50;;;;;;;18.02;9.82;;;;;;;13.88;36.73;97983.44;4456553;32;20104;-88
2022/04/22 00:59:16;;;;;;;18.05;8.80;;;;;;;13.86;36.96;97977.44;4442777;32;20100;-88
2022/04/22 01:01:41;;;;;;;18.87;9.07;;;;;;;13.85;36.61;97976.59;4456427;32;20123;-88
2022/04/22 01:09:48;;;;;;;18.35;8.77;;;;;;;13.69;36.56;97970.84;4456614;32;20128;-88
2022/04/22 01:12:14;;;;;;;17.65;8.93;;;;;;;13.70;36.77;97970.72;4456516;32;20084;-88
2022/04/22 01:14:41;;;;;;;20.02;9.68;;;;;;;13.67;37.06;97972.78;4442372;32;20081;-88
2022/04/22 01:17:07;;;;;;;19.20;10.13;;;;;;;13.65;36.86;97972.06;4442341;32;20207;-88
2022/04/22 01:19:35;;;;;;;18.87;9.57;;;;;;;13.66;36.73;97965.81;4442637;32;20093;-89
2022/04/22 01:22:01;;;;;;;19.10;9.95;;;;;;;13.63;36.83;97964.25;4456621;32;20131;-88
2022/04/22 01:24:27;;;;;;;21.83;9.55;;;;;;;13.56;36.84;97960.44;4442526;32;20505;-87
2022/04/22 01:26:57;;;;;;;18.33;9.18;;;;;;;13.56;36.81;97953.31;4456432;32;20455;-86
2022/04/22 01:29:23;;;;;;;19.35;9.15;;;;;;;13.51;37.13;97958.13;4456415;32;20105;-87
2022/04/22 01:31:48;;;;;;;19.10;9.60;;;;;;;13.51;37.03;97955.47;4456453;32;20452;-88
2022/04/22 01:34:14;;;;;;;18.08;9.00;;;;;;;13.50;37.21;97950.31;4456322;32;20093;-88
2022/04/22 01:36:40;;;;;;;18.67;8.98;;;;;;;13.51;37.06;97949.34;4442327;32;20115;-87
2022/04/22 01:39:05;;;;;;;18.15;8.63;;;;;;;13.51;37.54;97941.41;4442165;32;20129;-87
2022/04/22 01:41:31;;;;;;;17.08;8.25;;;;;;;13.51;37.85;97936.13;4456237;32;20088;-88
2022/04/22 01:43:57;;;;;;;17.42;8.13;;;;;;;13.50;37.84;97932.66;4442252;32;20092;-87
2022/04/22 01:46:23;;;;;;;15.25;8.15;;;;;;;13.49;37.74;97933.59;4456132;32;20148;-87
2022/04/22 01:48:49;;;;;;;17.25;8.57;;;;;;;13.51;37.99;97926.38;4442280;32;20105;-87
2022/04/22 01:51:14;;;;;;;17.80;8.48;;;;;;;13.49;38.03;97920.37;4456146;32;20153;-87
2022/04/22 01:53:39;;;;;;;15.75;7.90;;;;;;;13.48;38.01;97913.41;4442088;32;20099;-87
2022/04/22 01:56:05;;;;;;;17.30;7.70;;;;;;;13.49;38.00;97920.37;4456092;32;20081;-87
2022/04/22 01:58:31;;;;;;;17.05;7.32;;;;;;;13.46;37.35;97909.19;4456218;32;20093;-87
2022/04/22 02:00:56;;;;;;;17.00;7.53;;;;;;;13.44;37.07;97905.81;4455982;32;20115;-86
2022/04/22 02:03:21;;;;;;;16.20;7.05;;;;;;;13.42;36.75;97905.94;4441389;32;20093;-86
2022/04/22 02:05:47;;;;;;;15.57;7.80;;;;;;;13.42;36.70;97891.88;4455933;32;20089;-86
2022/04/22 02:08:12;;;;;;;14.57;6.95;;;;;;;13.40;36.80;97889.34;4441962;32;20466;-87
2022/04/22 02:10:40;;;;;;;14.70;6.65;;;;;;;13.39;36.88;97889.50;4456234;32;20120;-87
2022/04/22 02:13:07;;;;;;;;;;;;;;;13.36;36.85;97891.41;4456172;32;20160;-86
2022/04/22 02:15:32;;;;;;;15.65;6.82;;;;;;;13.40;36.84;97899.09;4456086;32;19978;-87
2022/04/22 02:17:57;;;;;;;15.27;7.72;;;;;;;13.35;36.89;97888.91;4455667;32;20119;-87
2022/04/22 02:20:23;;;;;;;15.88;6.90;;;;;;;13.31;36.84;97883.00;4441831;32;20129;-87
2022/04/22 02:22:48;;;;;;;15.15;7.30;;;;;;;13.31;36.71;97890.94;4441939;32;20093;-87
2022/04/22 02:25:14;;;;;;;14.68;6.95;;;;;;;13.29;36.69;97891.97;4455941;32;20110;-87
2022/04/22 02:30:23;;;;;;;14.48;6.43;;;;;;;13.26;37.03;97889.59;4456201;32;20727;-88
2022/04/22 02:32:50;;;;;;;16.62;6.93;;;;;;;13.24;37.08;97895.00;4441817;32;20081;-88
2022/04/22 02:35:15;;;;;;;16.23;7.32;;;;;;;13.24;36.93;97889.72;4455995;32;20145;-88
2022/04/22 02:37:41;;;;;;;15.20;7.10;;;;;;;13.15;36.96;97887.78;4441844;32;20102;-87
2022/04/22 02:40:07;;;;;;;16.48;6.87;;;;;;;13.17;36.41;97884.09;4455849;32;20336;-87
2022/04/22 02:45:28;;;;;;;13.93;6.65;;;;;;;13.14;36.97;97886.97;4443943;32;20116;-86
2022/04/22 02:47:57;;;;;;;16.60;7.10;;;;;;;13.14;37.17;97873.75;4456090;32;20093;-86
2022/04/22 02:50:23;;;;;;;15.23;6.87;;;;;;;13.14;37.21;97876.38;4455928;32;20093;-86
2022/04/22 02:52:48;;;;;;;16.98;7.65;;;;;;;13.15;37.08;97872.78;4455803;32;20160;-88
2022/04/22 02:55:14;;;;;;;15.95;6.95;;;;;;;13.07;37.13;97871.72;4455762;32;20081;-87
2022/04/22 02:57:44;;;;;;;13.82;6.78;;;;;;;13.16;37.25;97865.69;4455676;32;20146;-87
2022/04/22 03:00:12;;;;;;;15.15;7.15;;;;;;;13.16;37.47;97868.34;4455703;32;20097;-87
2022/04/22 03:02:38;;;;;;;14.38;7.05;;;;;;;13.20;37.45;97864.47;4455810;32;20080;-87
2022/04/22 03:05:04;;;;;;;15.45;6.78;;;;;;;13.27;37.58;97864.81;4455639;32;20165;-86
2022/04/22 03:07:29;;;;;;;16.37;7.45;;;;;;;13.33;37.44;97856.44;4455702;32;20378;-87
2022/04/22 03:09:54;;;;;;;15.75;7.25;;;;;;;13.39;37.20;97855.09;4455735;32;20085;-86
2022/04/22 03:12:20;;;;;;;14.82;7.12;;;;;;;13.41;37.38;97853.19;4455650;32;20349;-87
2022/04/22 03:14:45;;;;;;;15.90;6.95;;;;;;;13.47;37.64;97850.03;4454167;32;20085;-87
2022/04/22 03:17:10;;;;;;;17.27;7.78;;;;;;;13.51;37.75;97860.22;4455466;32;20132;-86
2022/04/22 03:19:36;;;;;;;17.35;8.65;;;;;;;13.51;37.71;97857.56;4455667;32;20111;-86
2022/04/22 03:22:02;;;;;;;16.27;7.55;;;;;;;13.50;37.48;97850.63;4455500;32;20072;-86
2022/04/22 03:24:27;;;;;;;17.17;7.53;;;;;;;13.43;37.07;97845.94;4428611;32;20080;-85
2022/04/22 03:26:53;;;;;;;17.30;8.32;;;;;;;13.51;37.43;97843.50;4441329;32;20133;-86
2022/04/22 03:29:18;;;;;;;18.90;8.15;;;;;;;13.50;37.87;97833.88;4455519;32;20116;-86
2022/04/22 03:31:44;;;;;;;17.23;7.82;;;;;;;13.53;37.71;97834.47;4441242;32;20085;-86
2022/04/22 03:34:09;;;;;;;16.37;8.27;;;;;;;13.51;37.66;97833.75;4455468;32;20140;-87
2022/04/22 03:36:35;;;;;;;17.17;7.93;;;;;;;13.54;37.50;97833.53;4455658;32;20101;-87
2022/04/22 03:39:00;;;;;;;17.30;7.97;;;;;;;13.53;37.47;97833.66;4455674;32;20128;-87
2022/04/22 03:41:26;;;;;;;15.57;8.00;;;;;;;13.56;36.99;97826.31;4455394;32;20084;-87
2022/04/22 03:43:52;;;;;;;17.23;7.97;;;;;;;13.63;37.01;97828.44;4455459;32;20155;-87
2022/04/22 03:46:17;;;;;;;18.45;8.00;;;;;;;13.64;37.39;97825.66;4455583;32;20089;-87
2022/04/22 03:48:42;;;;;;;16.10;8.23;;;;;;;13.70;37.18;97821.69;4455479;32;20084;-87
2022/04/22 03:51:08;;;;;;;17.48;8.02;;;;;;;13.70;36.73;97825.16;4441471;32;20089;-87
2022/04/22 03:53:36;;;;;;;17.40;8.30;;;;;;;13.73;36.54;97824.06;4441178;32;20116;-87
2022/04/22 03:58:10;;;;;;;16.50;8.40;;;;;;;13.74;36.14;97820.44;4429197;32;20101;-87
2022/04/22 03:58:49;;;;;;;16.70;7.47;;;;;;;13.77;35.79;97817.53;4454981;32;20162;-87
2022/04/22 04:01:14;;;;;;;16.55;8.02;;;;;;;13.83;36.19;97829.41;4441110;32;20085;-87
2022/04/22 04:03:39;;;;;;;15.05;7.70;;;;;;;13.75;36.54;97830.06;4455263;32;20108;-87
2022/04/22 04:06:07;;;;;;;15.95;7.43;;;;;;;13.80;36.51;97832.34;4441047;32;20128;-87
2022/04/22 04:08:32;;;;;;;18.65;8.98;;;;;;;13.85;36.58;97830.13;4455264;32;20145;-87
2022/04/22 04:16:26;;;;;;;15.98;7.65;;;;;;;13.94;36.05;97827.56;4454952;32;20158;-87
2022/04/22 04:18:52;;;;;;;16.95;8.05;;;;;;;13.87;36.66;97820.25;4440716;32;20105;-87
2022/04/22 04:24:02;;;;;;;15.45;7.72;;;;;;;14.02;37.38;97834.84;4442976;32;20119;-87
2022/04/22 04:26:27;;;;;;;17.02;8.02;;;;;;;14.08;36.46;97829.06;4441322;32;20113;-88
2022/04/22 04:28:53;;;;;;;16.50;8.13;;;;;;;14.07;36.28;97824.72;4456798;32;20172;-88
2022/04/22 04:31:20;;;;;;;17.27;8.23;;;;;;;14.09;36.07;97830.72;4442635;32;20085;-88
2022/04/22 04:33:46;;;;;;;18.08;8.32;;;;;;;14.08;36.37;97829.06;4442719;32;20077;-88
2022/04/22 04:36:12;;;;;;;17.83;8.05;;;;;;;14.09;36.17;97833.38;4456821;32;20124;-87
2022/04/22 04:38:39;;;;;;;15.27;7.82;;;;;;;14.09;36.98;97828.06;4456689;32;20089;-88
2022/04/22 04:41:08;;;;;;;17.58;7.97;;;;;;;14.15;37.29;97838.16;4442570;32;20108;-87
2022/04/22 04:43:34;;;;;;;17.02;8.73;;;;;;;14.20;36.67;97844.87;4456657;32;20089;-86
2022/04/22 04:45:59;;;;;;;15.55;7.82;;;;;;;14.20;36.01;97836.91;4456695;32;20334;-88
2022/04/22 04:48:25;;;;;;;17.92;8.73;;;;;;;14.21;36.52;97839.44;4442634;32;20157;-87
2022/04/22 04:50:51;;;;;;;14.73;7.68;;;;;;;14.22;36.12;97835.00;4456611;32;20137;-87
2022/04/22 04:53:17;;;;;;;15.98;8.65;;;;;;;14.26;36.48;97839.91;4456672;32;20440;-87
2022/04/22 04:55:42;;;;;;;18.50;8.25;;;;;;;14.20;36.22;97837.78;4442543;32;20104;-87
2022/04/22 04:58:08;;;;;;;17.48;8.60;;;;;;;14.26;35.63;97836.44;4450282;32;20131;-87
2022/04/22 05:00:34;;;;;;;15.45;8.05;;;;;;;14.25;35.75;97838.22;4456536;32;20086;-87
2022/04/22 05:02:59;;;;;;;16.92;8.60;;;;;;;14.23;35.96;97841.97;4456629;32;20128;-88
2022/04/22 05:05:25;;;;;;;15.75;8.27;;;;;;;14.26;35.78;97839.91;4442483;32;20160;-88
2022/04/22 05:07:59;;;;;;;17.27;8.95;;;;;;;14.25;35.46;97840.84;4442500;32;20387;-88
2022/04/22 05:10:26;;;;;;;18.85;8.65;;;;;;;14.27;35.31;97838.91;4443272;32;20112;-95
2022/04/22 05:12:52;;;;;;;17.27;8.68;;;;;;;14.25;35.18;97840.84;4430378;32;20115;-90
2022/04/22 05:15:18;;;;;;;17.52;9.95;;;;;;;14.16;35.86;97839.00;4456504;32;20115;-88
2022/04/22 05:17:44;;;;;;;17.23;8.43;;;;;;;14.29;35.36;97850.25;4442123;32;20479;-87
2022/04/22 05:20:12;;;;;;;16.52;8.40;;;;;;;14.27;35.31;97859.28;4442040;32;20092;-87
2022/04/22 05:22:38;;;;;;;15.45;8.52;;;;;;;14.32;35.47;97849.16;4456449;32;20115;-88
2022/04/22 05:25:04;;;;;;;16.75;8.77;;;;;;;14.35;35.45;97847.06;4455599;32;20089;-85
2022/04/22 05:27:31;;;;;;;18.20;9.18;;;;;;;14.36;35.45;97853.22;4456338;32;20522;-85
2022/04/22 05:32:42;;;;;;;18.52;8.70;;;;;;;14.29;34.92;97862.62;4456378;32;20116;-84
2022/04/22 05:35:09;;;;;;;17.85;8.95;;;;;;;14.32;35.00;97859.75;4442330;32;20436;-86
2022/04/22 05:37:46;;;;;;;17.45;8.90;;;;;;;14.26;35.05;97863.75;4455586;32;20120;-86
2022/04/22 05:40:13;;;;;;;18.73;8.93;;;;;;;14.32;34.87;97849.97;4456217;32;20077;-87
2022/04/22 05:42:39;;;;;;;19.60;8.93;;;;;;;14.30;35.20;97853.72;4456266;32;20077;-88
2022/04/22 05:45:09;;;;;;;18.40;9.20;;;;;;;14.33;35.14;97853.44;4456244;32;20157;-87
2022/04/22 05:47:35;;;;;;;18.23;8.98;;;;;;;14.31;34.98;97853.59;4456165;32;20100;-84
2022/04/22 05:50:01;;;;;;;19.25;9.50;;;;;;;14.25;35.50;97850.63;4456251;32;20357;-86
2022/04/22 05:52:27;;;;;;;17.27;9.18;;;;;;;14.22;35.52;97854.38;4442155;32;20107;-85
2022/04/22 05:54:53;;;;;;;19.27;9.27;;;;;;;14.25;35.30;97855.91;4456153;32;20097;-86
2022/04/22 05:57:19;;;;;;;18.52;9.38;;;;;;;14.26;35.61;97850.50;4456368;32;20633;-86
2022/04/22 05:59:44;;;;;;;18.27;9.43;;;;;;;14.31;35.93;97850.09;4456156;32;20081;-85
2022/04/22 06:02:10;;;;;;;17.80;9.20;;;;;;;14.24;35.74;97833.06;4456155;32;20468;-85
2022/04/22 06:04:35;;;;;;;18.85;9.75;;;;;;;14.28;35.53;97837.13;4456149;32;20116;-89
2022/04/22 06:07:01;;;;;;;17.60;9.35;;;;;;;14.30;35.54;97848.44;4456169;32;20108;-86
2022/04/22 06:12:10;;;;;;;17.37;8.80;;;;;;;14.35;35.69;97854.16;4456278;32;20597;-85
2022/04/22 06:14:35;;;;;;;18.80;9.18;;;;;;;14.40;34.90;97837.88;4456162;32;20089;-85
2022/04/22 06:17:01;;;;;;;19.25;9.38;;;;;;;14.39;34.95;97844.16;4456045;32;20093;-84
2022/04/22 06:19:27;;;;;;;19.12;9.20;;;;;;;14.40;34.91;97848.50;4456142;32;20077;-84
2022/04/22 06:21:52;;;;;;;20.45;10.02;;;;;;;14.42;35.30;97841.25;4455761;32;20100;-81
2022/04/22 06:24:18;;;;;;;16.80;8.73;;;;;;;14.51;34.95;97829.88;4441843;32;20097;-84
2022/04/22 06:26:43;;;;;;;16.85;9.25;;;;;;;14.55;34.86;97833.94;4455931;32;20124;-85
2022/04/22 06:29:09;;;;;;;19.37;9.18;;;;;;;14.51;35.23;97827.22;4455562;32;20081;-86
2022/04/22 06:31:35;;;;;;;19.67;9.60;;;;;;;14.61;34.74;97822.00;4441481;32;20130;-86
2022/04/22 06:34:02;;;;;;;19.37;8.98;;;;;;;14.50;35.05;97829.00;4455728;32;20109;-86
2022/04/22 06:36:29;;;;;;;20.33;9.80;;;;;;;14.53;35.24;97833.22;4440228;32;20112;-86
2022/04/22 06:38:58;;;;;;;16.98;9.20;;;;;;;14.56;35.24;97827.63;4447344;32;20124;-85
2022/04/22 06:46:53;;;;;;;18.10;9.15;;;;;;;14.71;35.24;97826.34;4452637;32;20120;-86
2022/04/22 06:49:19;;;;;;;19.80;10.02;;;;;;;14.70;35.79;97819.38;4454352;32;20440;-86
2022/04/22 06:51:45;;;;;;;19.23;9.63;;;;;;;14.75;35.15;97814.50;4454478;32;20112;-86
2022/04/22 06:54:11;;;;;;;18.83;10.40;;;;;;;14.78;35.32;97815.22;4440834;32;20129;-86
2022/04/22 06:56:42;;;;;;;20.37;10.23;;;;;;;14.80;34.91;97807.97;4455252;32;20089;-86
2022/04/22 06:59:09;;;;;;;18.55;9.02;;;;;;;14.71;35.54;97817.56;4438837;32;20112;-86
2022/04/22 07:01:36;;;;;;;18.73;10.13;;;;;;;14.82;34.94;97817.47;4444803;32;20114;-85
2022/04/22 07:04:02;;;;;;;18.05;9.75;;;;;;;14.87;34.94;97814.41;4447060;32;20097;-86
2022/04/22 07:06:29;;;;;;;19.55;9.82;;;;;;;14.92;34.90;97812.19;4450617;32;20140;-85
2022/04/22 07:08:55;;;;;;;17.80;9.45;;;;;;;14.94;34.50;97812.91;4442284;32;20086;-93
2022/04/22 07:11:26;;;;;;;17.73;10.15;;;;;;;14.94;34.92;97808.41;4451658;32;20116;-83
2022/04/22 07:13:56;;;;;;;19.37;9.68;;;;;;;14.98;35.37;97808.16;4446638;32;20085;-87
2022/04/22 07:16:21;;;;;;;19.10;9.35;;;;;;;14.97;34.78;97817.94;4455471;32;20097;-85
2022/04/22 07:18:47;;;;;;;18.60;9.57;;;;;;;15.01;34.60;97810.53;4454326;32;20150;-89
2022/04/22 07:21:13;;;;;;;18.17;9.43;;;;;;;15.00;34.80;97809.69;4439664;32;20101;-89
2022/04/22 07:23:39;;;;;;;19.20;9.52;;;;;;;14.99;34.89;97817.78;4454896;32;20084;-89
2022/04/22 07:26:07;;;;;;;20.25;9.75;;;;;;;15.01;34.51;97816.69;4454186;32;20132;-89
2022/04/22 07:28:33;;;;;;;21.40;9.77;;;;;;;14.96;35.11;97824.19;4455499;32;20081;-89
2022/04/22 07:30:59;;;;;;;22.42;9.75;;;;;;;14.91;35.18;97826.41;4441363;32;20119;-88
2022/04/22 07:33:26;;;;;;;17.40;9.27;;;;;;;14.95;35.12;97822.53;4455569;32;20097;-89
2022/04/22 07:35:52;;;;;;;20.98;9.82;;;;;;;14.89;34.84;97817.75;4455437;32;20158;-89
2022/04/22 07:38:18;;;;;;;19.92;10.07;;;;;;;14.94;35.50;97820.84;4455494;32;20345;-88
2022/04/22 07:40:48;;;;;;;19.63;10.20;;;;;;;14.89;36.00;97817.75;4455139;32;20467;-88
2022/04/22 07:48:43;;;;;;;21.02;9.73;;;;;;;14.96;36.54;97807.47;4455411;32;20123;-89
2022/04/22 07:51:08;;;;;;;17.37;9.60;;;;;;;14.98;37.46;97808.16;4455189;32;20085;-88
2022/04/22 07:53:35;;;;;;;21.92;10.13;;;;;;;14.99;37.60;97817.78;4455036;32;20428;-88
2022/04/22 07:56:02;;;;;;;22.67;10.10;;;;;;;15.05;37.54;97814.63;4455286;32;20105;-89
2022/04/22 07:58:29;;;;;;;20.05;10.13;;;;;;;15.04;37.79;97808.44;4441161;32;20163;-88
2022/04/22 08:00:55;;;;;;;20.98;10.10;;;;;;;15.08;39.51;97801.06;4455182;32;20089;-87
2022/04/22 08:03:20;;;;;;;18.77;9.73;;;;;;;14.76;39.67;97804.75;4456786;32;20105;-88
2022/04/22 08:05:46;;;;;;;18.35;10.25;;;;;;;14.97;40.12;97803.81;4457332;32;20089;-88
2022/04/22 08:08:11;;;;;;;20.67;10.30;;;;;;;14.98;39.46;97793.09;4443121;32;20088;-88
2022/04/22 08:10:38;;;;;;;19.42;10.40;;;;;;;15.00;38.61;97799.09;4457170;32;20349;-87
2022/04/22 08:13:05;;;;;;;20.90;10.68;;;;;;;14.87;39.09;97795.84;4443072;32;20103;-87
2022/04/22 08:15:31;;;;;;;18.98;10.05;;;;;;;14.90;39.12;97803.53;4443423;32;20104;-88
2022/04/22 08:17:56;;;;;;;20.10;10.65;;;;;;;14.93;40.38;97801.47;4456727;32;20126;-87
2022/04/22 08:20:22;;;;;;;20.12;11.38;;;;;;;14.91;41.02;97800.75;4456826;32;20145;-88
2022/04/22 08:22:47;;;;;;;21.27;10.85;;;;;;;14.99;42.09;97793.91;4456853;32;20093;-87
2022/04/22 08:25:13;;;;;;;21.02;11.15;;;;;;;15.05;41.31;97791.56;4456914;32;20137;-87
2022/04/22 08:27:40;;;;;;;18.12;10.40;;;;;;;15.09;41.22;97782.37;4442845;32;20471;-87
2022/04/22 08:30:06;;;;;;;21.62;11.43;;;;;;;15.17;41.26;97779.03;4442646;32;20145;-87
2022/04/22 08:32:31;;;;;;;20.83;11.52;;;;;;;15.14;40.19;97774.84;4457168;32;20170;-87
2022/04/22 08:34:57;;;;;;;22.83;11.85;;;;;;;15.17;41.35;97776.37;4457053;32;20097;-86
2022/04/22 08:37:22;;;;;;;19.65;11.12;;;;;;;15.23;42.41;97783.78;4456929;32;20081;-87
2022/04/22 08:39:48;;;;;;;22.50;11.95;;;;;;;15.27;42.14;97787.81;4456841;32;20085;-87
2022/04/22 08:42:14;;;;;;;21.48;12.18;;;;;;;15.32;42.69;97788.25;4457008;32;20129;-87
2022/04/22 08:44:40;;;;;;;22.08;11.73;;;;;;;15.39;44.07;97783.22;4456794;32;20093;-87
2022/04/22 08:49:58;;;;;;;20.73;11.45;;;;;;;15.46;42.66;97771.09;4456769;32;20115;-87
2022/04/22 08:52:28;;;;;;;21.80;12.93;;;;;;;15.44;43.47;97761.59;4443747;32;20148;-86
2022/04/22 08:54:54;;;;;;;23.75;13.55;;;;;;;15.50;43.83;97761.84;4442820;32;20198;-87
2022/04/22 08:57:21;;;;;;;25.10;13.00;;;;;;;15.50;43.94;97759.22;4442535;32;20444;-87
2022/04/22 08:59:46;;;;;;;20.25;12.35;;;;;;;15.41;44.10;97762.69;4456604;32;20440;-87
2022/04/22 09:02:16;;;;;;;20.77;13.00;;;;;;;15.40;45.09;97755.72;4456644;32;20149;-87
2022/04/22 09:04:42;;;;;;;22.67;13.02;;;;;;;15.46;45.58;97759.63;4442803;32;20101;-87
2022/04/22 09:07:12;;;;;;;24.83;13.80;;;;;;;15.04;45.74;97763.34;4456687;32;20114;-87
2022/04/22 09:09:38;;;;;;;21.95;12.90;;;;;;;15.21;46.72;97764.50;4442780;32;20128;-87
2022/04/22 09:12:12;;;;;;;24.43;13.37;;;;;;;15.37;46.51;97768.44;4456471;32;20108;-87
2022/04/22 09:14:47;;;;;;;19.37;11.68;;;;;;;15.42;46.77;97755.59;4456513;32;20148;-87
2022/04/22 09:17:25;;;;;;;21.65;13.05;;;;;;;15.42;45.88;97748.47;4442749;32;20416;-87
2022/04/22 09:19:51;;;;;;;22.50;12.70;;;;;;;15.36;46.32;97742.88;4456427;32;20112;-86
2022/04/22 09:22:21;;;;;;;23.35;13.02;;;;;;;15.22;47.05;97741.44;4442508;32;20137;-87
2022/04/22 09:24:48;;;;;;;24.77;13.85;;;;;;;15.17;47.15;97741.88;4456465;32;20123;-86
2022/04/22 09:27:13;;;;;;;23.87;14.07;;;;;;;15.09;47.75;97739.09;4456435;32;20103;-86
2022/04/22 09:29:53;;;;;;;23.05;14.20;;;;;;;14.79;49.07;97734.69;4442366;32;20129;-86
2022/04/22 09:32:32;;;;;;;24.58;14.38;;;;;;;14.67;49.64;97726.84;4442415;32;20436;-86
2022/04/22 09:35:06;;;;;;;23.20;14.10;;;;;;;14.34;50.46;97725.31;4442367;32;20100;-86
2022/04/22 09:42:59;;;;;;;22.90;12.80;;;;;;;14.46;51.99;97711.00;4456383;32;20172;-86
2022/04/22 09:45:35;;;;;;;25.85;13.95;;;;;;;14.32;52.13;97717.50;4442180;32;20453;-86
2022/04/22 09:48:01;;;;;;;24.02;13.60;;;;;;;14.10;52.15;97709.72;4456249;32;20085;-86
2022/04/22 09:50:41;;;;;;;24.35;14.15;;;;;;;14.08;52.73;97711.69;4442205;32;20115;-86
2022/04/22 09:53:07;;;;;;;24.02;13.90;;;;;;;13.96;53.70;97703.84;4456339;32;20127;-86
2022/04/22 09:55:36;;;;;;;22.83;13.13;;;;;;;13.98;53.28;97711.62;4456157;32;20118;-86
2022/04/22 09:58:02;;;;;;;23.17;14.30;;;;;;;13.94;52.92;97711.06;4442244;32;20092;-86
2022/04/22 10:00:31;;;;;;;22.65;12.90;;;;;;;13.86;53.49;97707.41;4456304;32;20473;-86
2022/04/22 10:02:57;;;;;;;25.60;14.70;;;;;;;13.99;53.32;97707.19;4456505;32;20101;-87
2022/04/22 10:05:24;;;;;;;24.52;14.60;;;;;;;13.65;53.56;97718.81;4456513;32;20145;-86
2022/04/22 10:07:51;;;;;;;26.73;14.77;;;;;;;13.92;53.11;97715.63;4442385;32;20456;-87
2022/04/22 10:10:19;;;;;;;22.85;13.93;;;;;;;14.08;53.49;97716.97;4442164;32;20188;-87
2022/04/22 10:12:46;;;;;;;24.60;14.05;;;;;;;14.13;52.18;97714.78;4442248;32;20395;-87
2022/04/22 10:15:12;;;;;;;23.62;13.75;;;;;;;14.09;52.90;97714.19;4442132;32;20157;-87
2022/04/22 10:17:38;;;;;;;24.60;14.63;;;;;;;14.04;52.57;97708.47;4441858;32;20097;-86
2022/04/22 10:20:07;;;;;;;24.55;14.27;;;;;;;13.95;53.15;97701.31;4456109;32;20179;-87
2022/04/22 10:22:33;;;;;;;24.92;14.25;;;;;;;13.91;53.14;97698.09;4456132;32;20492;-87
2022/04/22 10:25:03;;;;;;;24.58;13.75;;;;;;;14.06;53.83;97695.94;4455555;32;20093;-86
2022/04/22 10:27:32;;;;;;;24.12;13.30;;;;;;;14.32;52.46;97684.87;4456283;32;20152;-86
2022/04/22 10:29:59;;;;;;;24.00;13.88;;;;;;;14.47;52.34;97688.00;4456190;32;20081;-87
2022/04/22 10:32:25;;;;;;;22.13;13.25;;;;;;;14.33;52.35;97689.19;4442289;32;20141;-87
2022/04/22 10:34:57;;;;;;;23.45;14.52;;;;;;;14.30;52.20;97678.88;4441982;32;20159;-87
2022/04/22 10:37:27;;;;;;;23.83;14.32;;;;;;;14.39;52.36;97674.56;4455897;32;20097;-87
2022/04/22 10:40:00;;;;;;;22.20;13.55;;;;;;;14.48;52.02;97671.94;4455985;32;20089;-86
2022/04/22 10:42:36;;;;;;;23.80;13.93;;;;;;;14.48;52.70;97671.94;4442329;32;20101;-86
2022/04/22 10:47:56;;;;;;;25.85;15.27;;;;;;;14.52;53.50;97675.16;4455911;32;20115;-87
2022/04/22 10:50:37;;;;;;;23.65;15.20;;;;;;;14.54;53.08;97679.38;4441811;32;20081;-87
2022/04/22 10:53:25;;;;;;;23.50;14.38;;;;;;;14.48;53.62;97671.94;4442122;32;20178;-87
2022/04/22 10:55:51;;;;;;;25.25;14.32;;;;;;;14.45;53.38;97674.06;4455888;32;20097;-87
2022/04/22 10:58:21;;;;;;;22.13;13.73;;;;;;;14.50;53.25;97672.66;4455729;32;20084;-87
2022/04/22 11:00:47;;;;;;;24.08;13.35;;;;;;;14.50;53.31;97662.03;4455665;32;20123;-87
2022/04/22 11:03:15;;;;;;;23.48;13.77;;;;;;;14.42;53.39;97655.78;4455829;32;20155;-87
2022/04/22 11:05:59;;;;;;;;;;;;;;;14.38;53.73;97655.19;4456024;32;20113;-87
2022/04/22 11:08:32;;;;;;;24.98;14.02;;;;;;;14.50;53.80;97655.91;4455873;32;20355;-86
2022/04/22 11:11:03;;;;;;;25.30;13.82;;;;;;;14.50;53.73;97650.62;4455708;32;20089;-87
2022/04/22 11:13:38;;;;;;;23.02;14.18;;;;;;;14.62;53.67;97648.72;4455815;32;20158;-86
2022/04/22 11:16:22;;;;;;;23.52;14.45;;;;;;;14.55;53.58;97645.75;4455742;32;20368;-87
2022/04/22 11:19:09;;;;;;;23.17;13.98;;;;;;;14.76;53.64;97643.03;4455658;32;20159;-87
2022/04/22 11:21:37;;;;;;;20.62;12.90;;;;;;;14.89;53.27;97640.09;4455577;32;20497;-87
2022/04/22 11:24:14;;;;;;;21.73;13.52;;;;;;;15.07;51.93;97642.91;4455623;32;20157;-87
2022/04/22 11:26:39;;;;;;;22.55;14.07;;;;;;;15.07;51.79;97640.25;4429068;32;20127;-88
2022/04/22 11:29:10;;;;;;;22.10;12.65;;;;;;;15.16;52.14;97638.56;4441517;32;20097;-87
2022/04/22 11:31:36;;;;;;;21.50;12.55;;;;;;;15.04;51.25;97640.53;4455476;32;20081;-86
2022/04/22 11:34:08;;;;;;;22.35;13.40;;;;;;;15.12;50.79;97635.34;4455496;32;20139;-87
2022/04/22 11:36:45;;;;;;;21.52;13.02;;;;;;;15.19;50.78;97627.69;4427338;32;20135;-87
2022/04/22 11:39:23;;;;;;;22.48;13.35;;;;;;;15.44;50.46;97621.75;4455354;32;20080;-87
2022/04/22 11:41:53;;;;;;;22.52;12.48;;;;;;;15.62;50.16;97621.84;4455341;32;20452;-87
2022/04/22 11:44:20;;;;;;;20.15;12.35;;;;;;;15.77;48.71;97616.94;4428529;32;20109;-87
2022/04/22 11:46:46;;;;;;;19.13;12.23;;;;;;;15.86;48.18;97615.25;4455378;32;20117;-87
2022/04/22 11:49:11;;;;;;;19.90;11.98;;;;;;;15.85;47.70;97618.88;4455303;32;20161;-87
2022/04/22 11:51:37;;;;;;;20.62;12.82;;;;;;;15.48;47.24;97623.16;4441168;32;20151;-87
2022/04/22 11:54:02;;;;;;;19.98;11.95;;;;;;;15.76;46.75;97620.59;4441272;32;20124;-87
2022/04/22 11:56:27;;;;;;;18.87;11.70;;;;;;;15.89;46.83;97607.81;4455168;32;20085;-88
2022/04/22 11:58:56;;;;;;;21.20;12.32;;;;;;;16.01;46.31;97612.94;4455138;32;20123;-87
2022/04/22 12:06:57;;;;;;;18.25;11.35;;;;;;;16.02;44.84;97594.19;4443108;32;20123;-87
2022/04/22 12:09:22;;;;;;;18.77;11.05;;;;;;;16.16;44.91;97587.56;4455101;32;20448;-87
2022/04/22 12:11:50;;;;;;;18.30;10.02;;;;;;;15.77;45.63;97600.19;4454883;32;20122;-87
2022/04/22 12:14:24;;;;;;;18.48;9.88;;;;;;;15.86;43.57;97583.38;4454991;32;20101;-87